Aérodrome :
LOGIN :

S'inscrire | Disclaimer

   EN    FR    IT 

 










Légende :    VFR   VFR Marginal   IFR   IFR Intensif   IFR Très Intensif
Visi : 
Plafond : 
>= 8 km
>= 3000ft
5 à 8 km
1000 à 3000 ft
1500m à 5 km
500 à 1000 ft
800 à 1500m
200 à 500 ft
< 800m
< 200 ft
Symboles :   Orages  Brouillard  Fortes neiges  Fortes précipitations  Vent > 20 kt
SIGMETs :   Divers  Orages  Givrage  Turbulence  Onde Orograph.  Cendres Volcan.







- Altitude de l'aérodrome : 1276 ft
- Code IATA : STR


EDDS - Stuttgart

DERNIER METAR :
  • 221720Z 16004KT 9999 BKN016 M01/M05 Q1004 NOSIG

METARs EXPIRÉS :
  • 221650Z 14004KT 110V180 9999 BKN016 M01/M05 Q1004 NOSIG
  • 221620Z 13004KT 080V160 9999 BKN016 M01/M04 Q1005 NOSIG
  • 221550Z 15005KT 110V190 9999 BKN017 M01/M05 Q1005 NOSIG
  • 221520Z 13006KT 100V170 9999 BKN017 M01/M04 Q1005 NOSIG
  • 221450Z 13005KT 100V180 9999 BKN018 M00/M04 Q1005 NOSIG

TAF TAF EDDS
Valide du 22 à 18h jusqu'au 23 à 18h UTC


221700Z 2218/2318 13005KT 9999 BKN015
BECMG 2218/2221 VRB03KT
TEMPO 2218/2309 BKN012
PROB30
TEMPO 2304/2310 4500 BR
BECMG 2311/2315 03005KT
Pas de NOTAMs connus pour ce terrain.



MET'MAP, la Météo Aéronautique d'un coup d'oeil ! - Copyright ORBIFLY Décembre 2007 - Disclaimer

ORBIFLY MET'MAP TEAM :

Programmation & Développement : Alexandra Zaïnal
Conception & Développement : Baudouin d'Aumeries
Co-Programmation & Développement : Marc-Olivier Méhu
Soutien technique & logistique : Manuel Goepfert

Contact : metmap@orbifly.com




SOURCES & CREDITS :

   NOAA